sensor_id;sensor_type;location;lat;lon;timestamp;temperature;humidity
3281;DHT22;1652;51.318;6.202;2023-01-10T00:00:05;6.10;99.90
3281;DHT22;1652;51.318;6.202;2023-01-10T00:02:32;6.10;99.90
3281;DHT22;1652;51.318;6.202;2023-01-10T00:04:59;6.10;99.90
3281;DHT22;1652;51.318;6.202;2023-01-10T00:07:26;6.20;99.90
3281;DHT22;1652;51.318;6.202;2023-01-10T00:09:53;6.10;99.90
3281;DHT22;1652;51.318;6.202;2023-01-10T00:12:19;6.10;99.90
3281;DHT22;1652;51.318;6.202;2023-01-10T00:15:05;6.10;99.90
3281;DHT22;1652;51.318;6.202;2023-01-10T00:17:32;6.00;99.90
3281;DHT22;1652;51.318;6.202;2023-01-10T00:19:59;5.90;99.90
3281;DHT22;1652;51.318;6.202;2023-01-10T00:22:26;5.90;99.90
3281;DHT22;1652;51.318;6.202;2023-01-10T00:24:53;5.90;99.90
3281;DHT22;1652;51.318;6.202;2023-01-10T00:27:19;5.80;99.90
3281;DHT22;1652;51.318;6.202;2023-01-10T00:29:49;5.90;99.90
3281;DHT22;1652;51.318;6.202;2023-01-10T00:32:20;5.90;99.90
3281;DHT22;1652;51.318;6.202;2023-01-10T00:34:47;5.90;99.90
3281;DHT22;1652;51.318;6.202;2023-01-10T00:37:14;5.90;99.90
3281;DHT22;1652;51.318;6.202;2023-01-10T00:39:40;5.90;99.90
3281;DHT22;1652;51.318;6.202;2023-01-10T00:42:09;6.00;99.90
3281;DHT22;1652;51.318;6.202;2023-01-10T00:44:55;5.90;99.90
3281;DHT22;1652;51.318;6.202;2023-01-10T00:47:22;5.80;99.90
3281;DHT22;1652;51.318;6.202;2023-01-10T00:49:48;5.70;99.90
3281;DHT22;1652;51.318;6.202;2023-01-10T00:52:15;5.70;99.90
3281;DHT22;1652;51.318;6.202;2023-01-10T00:54:42;5.70;99.90
3281;DHT22;1652;51.318;6.202;2023-01-10T00:57:09;5.70;99.90
3281;DHT22;1652;51.318;6.202;2023-01-10T00:59:36;5.60;99.90
3281;DHT22;1652;51.318;6.202;2023-01-10T01:02:02;5.60;99.90
3281;DHT22;1652;51.318;6.202;2023-01-10T01:04:30;5.60;99.90
3281;DHT22;1652;51.318;6.202;2023-01-10T01:07:00;5.50;99.90
3281;DHT22;1652;51.318;6.202;2023-01-10T01:09:30;5.50;99.90
3281;DHT22;1652;51.318;6.202;2023-01-10T01:11:57;5.50;99.90
3281;DHT22;1652;51.318;6.202;2023-01-10T01:14:24;5.50;99.90
3281;DHT22;1652;51.318;6.202;2023-01-10T01:16:51;5.50;99.90
3281;DHT22;1652;51.318;6.202;2023-01-10T01:19:18;5.40;99.90
3281;DHT22;1652;51.318;6.202;2023-01-10T01:21:45;5.40;99.90
3281;DHT22;1652;51.318;6.202;2023-01-10T01:24:12;5.30;99.90
3281;DHT22;1652;51.318;6.202;2023-01-10T01:26:39;5.20;99.90
3281;DHT22;1652;51.318;6.202;2023-01-10T01:29:08;5.20;99.90
3281;DHT22;1652;51.318;6.202;2023-01-10T01:31:35;5.20;99.90
3281;DHT22;1652;51.318;6.202;2023-01-10T01:34:02;5.10;99.90
3281;DHT22;1652;51.318;6.202;2023-01-10T01:36:29;5.00;99.90
3281;DHT22;1652;51.318;6.202;2023-01-10T01:38:56;5.00;99.90
3281;DHT22;1652;51.318;6.202;2023-01-10T01:41:22;4.90;99.90
3281;DHT22;1652;51.318;6.202;2023-01-10T01:44:16;4.90;99.90
3281;DHT22;1652;51.318;6.202;2023-01-10T01:47:01;4.80;99.90
3281;DHT22;1652;51.318;6.202;2023-01-10T01:49:31;4.80;99.90
3281;DHT22;1652;51.318;6.202;2023-01-10T01:52:04;4.90;99.90
3281;DHT22;1652;51.318;6.202;2023-01-10T01:54:33;4.80;99.90
3281;DHT22;1652;51.318;6.202;2023-01-10T01:57:06;4.80;99.90
3281;DHT22;1652;51.318;6.202;2023-01-10T01:59:38;4.70;99.90
3281;DHT22;1652;51.318;6.202;2023-01-10T02:02:28;4.80;99.90
3281;DHT22;1652;51.318;6.202;2023-01-10T02:05:06;4.80;99.90
3281;DHT22;1652;51.318;6.202;2023-01-10T02:07:36;4.80;99.90
3281;DHT22;1652;51.318;6.202;2023-01-10T02:10:10;4.90;99.90
3281;DHT22;1652;51.318;6.202;2023-01-10T02:12:39;4.90;99.90
3281;DHT22;1652;51.318;6.202;2023-01-10T02:15:06;4.90;99.90
3281;DHT22;1652;51.318;6.202;2023-01-10T02:17:33;4.90;99.90
3281;DHT22;1652;51.318;6.202;2023-01-10T02:20:10;4.80;99.90
3281;DHT22;1652;51.318;6.202;2023-01-10T02:28:40;4.70;99.90
3281;DHT22;1652;51.318;6.202;2023-01-10T02:39:38;4.60;99.90
3281;DHT22;1652;51.318;6.202;2023-01-10T02:42:21;4.60;99.90
3281;DHT22;1652;51.318;6.202;2023-01-10T02:44:51;4.60;99.90
3281;DHT22;1652;51.318;6.202;2023-01-10T02:47:19;4.50;99.90
3281;DHT22;1652;51.318;6.202;2023-01-10T02:49:48;4.50;99.90
3281;DHT22;1652;51.318;6.202;2023-01-10T02:52:27;4.60;99.90
3281;DHT22;1652;51.318;6.202;2023-01-10T02:55:00;4.60;99.90
3281;DHT22;1652;51.318;6.202;2023-01-10T03:00:17;4.60;99.90
3281;DHT22;1652;51.318;6.202;2023-01-10T03:05:57;4.70;99.90
3281;DHT22;1652;51.318;6.202;2023-01-10T03:08:38;4.90;99.90
3281;DHT22;1652;51.318;6.202;2023-01-10T03:11:08;4.90;99.90
3281;DHT22;1652;51.318;6.202;2023-01-10T03:16:15;5.10;99.90
3281;DHT22;1652;51.318;6.202;2023-01-10T03:18:59;5.30;99.90
3281;DHT22;1652;51.318;6.202;2023-01-10T03:21:29;5.30;99.90
3281;DHT22;1652;51.318;6.202;2023-01-10T03:24:07;5.30;99.90
3281;DHT22;1652;51.318;6.202;2023-01-10T03:26:54;5.30;99.90
3281;DHT22;1652;51.318;6.202;2023-01-10T03:29:27;5.30;99.90
3281;DHT22;1652;51.318;6.202;2023-01-10T03:32:00;5.40;99.90
3281;DHT22;1652;51.318;6.202;2023-01-10T03:34:29;5.30;99.90
3281;DHT22;1652;51.318;6.202;2023-01-10T03:37:03;5.30;99.90
3281;DHT22;1652;51.318;6.202;2023-01-10T03:39:39;5.20;99.90
3281;DHT22;1652;51.318;6.202;2023-01-10T03:42:22;5.20;99.90
3281;DHT22;1652;51.318;6.202;2023-01-10T03:44:57;5.10;99.90
3281;DHT22;1652;51.318;6.202;2023-01-10T03:47:35;5.10;99.90
3281;DHT22;1652;51.318;6.202;2023-01-10T03:52:39;5.20;99.90
3281;DHT22;1652;51.318;6.202;2023-01-10T03:55:10;5.10;99.90
3281;DHT22;1652;51.318;6.202;2023-01-10T03:57:41;5.00;99.90
3281;DHT22;1652;51.318;6.202;2023-01-10T04:00:09;4.90;99.90
3281;DHT22;1652;51.318;6.202;2023-01-10T04:02:35;4.90;99.90
3281;DHT22;1652;51.318;6.202;2023-01-10T04:05:03;5.00;99.90
3281;DHT22;1652;51.318;6.202;2023-01-10T04:07:30;5.10;99.90
3281;DHT22;1652;51.318;6.202;2023-01-10T04:09:57;5.20;99.90
3281;DHT22;1652;51.318;6.202;2023-01-10T04:12:24;5.10;99.90
3281;DHT22;1652;51.318;6.202;2023-01-10T04:14:51;5.10;99.90
3281;DHT22;1652;51.318;6.202;2023-01-10T04:17:18;5.10;99.90
3281;DHT22;1652;51.318;6.202;2023-01-10T04:19:45;5.00;99.90
3281;DHT22;1652;51.318;6.202;2023-01-10T04:22:11;5.00;99.90
3281;DHT22;1652;51.318;6.202;2023-01-10T04:24:39;4.90;99.90
3281;DHT22;1652;51.318;6.202;2023-01-10T04:27:06;4.90;99.90
3281;DHT22;1652;51.318;6.202;2023-01-10T04:29:33;4.90;99.90
3281;DHT22;1652;51.318;6.202;2023-01-10T04:31:59;4.90;99.90
3281;DHT22;1652;51.318;6.202;2023-01-10T04:34:26;4.90;99.90
3281;DHT22;1652;51.318;6.202;2023-01-10T04:36:53;4.90;99.90
3281;DHT22;1652;51.318;6.202;2023-01-10T04:39:20;4.90;99.90
3281;DHT22;1652;51.318;6.202;2023-01-10T04:41:47;4.90;99.90
3281;DHT22;1652;51.318;6.202;2023-01-10T04:44:13;4.90;99.90
3281;DHT22;1652;51.318;6.202;2023-01-10T04:46:40;4.90;99.90
3281;DHT22;1652;51.318;6.202;2023-01-10T04:49:08;4.80;99.90
3281;DHT22;1652;51.318;6.202;2023-01-10T04:51:35;4.80;99.90
3281;DHT22;1652;51.318;6.202;2023-01-10T04:54:03;4.80;99.90
3281;DHT22;1652;51.318;6.202;2023-01-10T04:56:29;4.80;99.90
3281;DHT22;1652;51.318;6.202;2023-01-10T04:58:56;4.80;99.90
3281;DHT22;1652;51.318;6.202;2023-01-10T05:01:24;4.80;99.90
3281;DHT22;1652;51.318;6.202;2023-01-10T05:03:53;4.80;99.90
3281;DHT22;1652;51.318;6.202;2023-01-10T05:06:22;4.80;99.90
3281;DHT22;1652;51.318;6.202;2023-01-10T05:08:49;4.80;99.90
3281;DHT22;1652;51.318;6.202;2023-01-10T05:11:16;4.70;99.90
3281;DHT22;1652;51.318;6.202;2023-01-10T05:13:42;4.70;99.90
3281;DHT22;1652;51.318;6.202;2023-01-10T05:16:12;4.70;99.90
3281;DHT22;1652;51.318;6.202;2023-01-10T05:18:39;4.70;99.90
3281;DHT22;1652;51.318;6.202;2023-01-10T05:21:08;4.80;99.90
3281;DHT22;1652;51.318;6.202;2023-01-10T05:23:36;4.60;99.90
3281;DHT22;1652;51.318;6.202;2023-01-10T05:26:07;4.70;99.90
3281;DHT22;1652;51.318;6.202;2023-01-10T05:28:35;4.70;99.90
3281;DHT22;1652;51.318;6.202;2023-01-10T05:31:04;4.70;99.90
3281;DHT22;1652;51.318;6.202;2023-01-10T05:33:30;4.70;99.90
3281;DHT22;1652;51.318;6.202;2023-01-10T05:36:00;4.70;99.90
3281;DHT22;1652;51.318;6.202;2023-01-10T05:38:30;4.70;99.90
3281;DHT22;1652;51.318;6.202;2023-01-10T05:40:58;4.60;99.90
3281;DHT22;1652;51.318;6.202;2023-01-10T05:43:26;4.60;99.90
3281;DHT22;1652;51.318;6.202;2023-01-10T05:45:53;4.60;99.90
3281;DHT22;1652;51.318;6.202;2023-01-10T05:48:20;4.60;99.90
3281;DHT22;1652;51.318;6.202;2023-01-10T05:50:48;4.60;99.90
3281;DHT22;1652;51.318;6.202;2023-01-10T05:53:16;4.60;99.90
3281;DHT22;1652;51.318;6.202;2023-01-10T05:55:43;4.60;99.90
3281;DHT22;1652;51.318;6.202;2023-01-10T05:58:09;4.60;99.90
3281;DHT22;1652;51.318;6.202;2023-01-10T06:00:37;4.60;99.90
3281;DHT22;1652;51.318;6.202;2023-01-10T06:03:05;4.60;99.90
3281;DHT22;1652;51.318;6.202;2023-01-10T06:08:00;4.70;99.90
3281;DHT22;1652;51.318;6.202;2023-01-10T06:10:27;4.70;99.90
3281;DHT22;1652;51.318;6.202;2023-01-10T06:12:54;4.70;99.90
3281;DHT22;1652;51.318;6.202;2023-01-10T06:15:20;4.90;99.90
3281;DHT22;1652;51.318;6.202;2023-01-10T06:17:47;4.90;99.90
3281;DHT22;1652;51.318;6.202;2023-01-10T06:20:14;5.00;99.90
3281;DHT22;1652;51.318;6.202;2023-01-10T06:22:42;4.90;99.90
3281;DHT22;1652;51.318;6.202;2023-01-10T06:25:10;5.00;99.90
3281;DHT22;1652;51.318;6.202;2023-01-10T06:27:41;5.00;99.90
3281;DHT22;1652;51.318;6.202;2023-01-10T06:30:11;5.00;99.90
3281;DHT22;1652;51.318;6.202;2023-01-10T06:32:38;5.10;99.90
3281;DHT22;1652;51.318;6.202;2023-01-10T06:35:06;5.10;99.90
3281;DHT22;1652;51.318;6.202;2023-01-10T06:37:33;5.10;99.90
3281;DHT22;1652;51.318;6.202;2023-01-10T06:40:00;5.10;99.90
3281;DHT22;1652;51.318;6.202;2023-01-10T06:42:26;5.10;99.90
3281;DHT22;1652;51.318;6.202;2023-01-10T06:44:53;5.10;99.90
3281;DHT22;1652;51.318;6.202;2023-01-10T06:47:20;5.10;99.90
3281;DHT22;1652;51.318;6.202;2023-01-10T06:49:47;5.10;99.90
3281;DHT22;1652;51.318;6.202;2023-01-10T06:52:14;5.00;99.90
3281;DHT22;1652;51.318;6.202;2023-01-10T06:54:41;5.00;99.90
3281;DHT22;1652;51.318;6.202;2023-01-10T06:57:07;4.90;99.90
3281;DHT22;1652;51.318;6.202;2023-01-10T06:59:34;4.90;99.90
3281;DHT22;1652;51.318;6.202;2023-01-10T07:02:01;4.90;99.90
3281;DHT22;1652;51.318;6.202;2023-01-10T07:04:28;4.80;99.90
3281;DHT22;1652;51.318;6.202;2023-01-10T07:06:55;4.80;99.90
3281;DHT22;1652;51.318;6.202;2023-01-10T07:09:22;4.80;99.90
3281;DHT22;1652;51.318;6.202;2023-01-10T07:11:48;4.80;99.90
3281;DHT22;1652;51.318;6.202;2023-01-10T07:14:15;4.80;99.90
3281;DHT22;1652;51.318;6.202;2023-01-10T07:16:42;4.90;99.90
3281;DHT22;1652;51.318;6.202;2023-01-10T07:19:09;4.90;99.90
3281;DHT22;1652;51.318;6.202;2023-01-10T07:21:36;4.90;99.90
3281;DHT22;1652;51.318;6.202;2023-01-10T07:24:03;4.80;99.90
3281;DHT22;1652;51.318;6.202;2023-01-10T07:26:30;4.80;99.90
3281;DHT22;1652;51.318;6.202;2023-01-10T07:28:56;4.70;99.90
3281;DHT22;1652;51.318;6.202;2023-01-10T07:31:23;4.60;99.90
3281;DHT22;1652;51.318;6.202;2023-01-10T07:33:51;4.60;99.90
3281;DHT22;1652;51.318;6.202;2023-01-10T07:36:18;4.70;99.90
3281;DHT22;1652;51.318;6.202;2023-01-10T07:38:45;4.70;99.90
3281;DHT22;1652;51.318;6.202;2023-01-10T07:41:12;4.60;99.90
3281;DHT22;1652;51.318;6.202;2023-01-10T07:43:38;4.60;99.90
3281;DHT22;1652;51.318;6.202;2023-01-10T07:46:06;4.60;99.90
3281;DHT22;1652;51.318;6.202;2023-01-10T07:48:38;4.60;99.90
3281;DHT22;1652;51.318;6.202;2023-01-10T07:51:07;4.60;99.90
3281;DHT22;1652;51.318;6.202;2023-01-10T07:53:34;4.60;99.90
3281;DHT22;1652;51.318;6.202;2023-01-10T07:56:02;4.70;99.90
3281;DHT22;1652;51.318;6.202;2023-01-10T07:58:29;4.70;99.90
3281;DHT22;1652;51.318;6.202;2023-01-10T08:00:58;4.70;99.90
3281;DHT22;1652;51.318;6.202;2023-01-10T08:03:25;4.70;99.90
3281;DHT22;1652;51.318;6.202;2023-01-10T08:06:04;4.80;99.90
3281;DHT22;1652;51.318;6.202;2023-01-10T08:08:32;4.80;99.90
3281;DHT22;1652;51.318;6.202;2023-01-10T08:11:00;4.90;99.90
3281;DHT22;1652;51.318;6.202;2023-01-10T08:13:29;4.90;99.90
3281;DHT22;1652;51.318;6.202;2023-01-10T08:15:56;4.90;99.90
3281;DHT22;1652;51.318;6.202;2023-01-10T08:18:24;4.80;99.90
3281;DHT22;1652;51.318;6.202;2023-01-10T08:20:52;4.90;99.90
3281;DHT22;1652;51.318;6.202;2023-01-10T08:23:19;4.90;99.90
3281;DHT22;1652;51.318;6.202;2023-01-10T08:25:47;4.90;99.90
3281;DHT22;1652;51.318;6.202;2023-01-10T08:28:14;4.90;99.90
3281;DHT22;1652;51.318;6.202;2023-01-10T08:30:41;5.00;99.90
3281;DHT22;1652;51.318;6.202;2023-01-10T08:33:09;5.00;99.90
3281;DHT22;1652;51.318;6.202;2023-01-10T08:35:40;5.00;99.90
3281;DHT22;1652;51.318;6.202;2023-01-10T08:38:08;5.00;99.90
3281;DHT22;1652;51.318;6.202;2023-01-10T08:40:35;5.10;99.90
3281;DHT22;1652;51.318;6.202;2023-01-10T08:43:05;5.20;99.90
3281;DHT22;1652;51.318;6.202;2023-01-10T08:45:32;5.20;99.90
3281;DHT22;1652;51.318;6.202;2023-01-10T08:47:59;5.20;99.90
3281;DHT22;1652;51.318;6.202;2023-01-10T08:50:27;5.30;99.90
3281;DHT22;1652;51.318;6.202;2023-01-10T08:52:57;5.40;99.90
3281;DHT22;1652;51.318;6.202;2023-01-10T08:55:24;5.50;99.90
3281;DHT22;1652;51.318;6.202;2023-01-10T08:57:51;5.50;99.90
3281;DHT22;1652;51.318;6.202;2023-01-10T09:00:19;5.60;99.90
3281;DHT22;1652;51.318;6.202;2023-01-10T09:02:46;5.70;99.90
3281;DHT22;1652;51.318;6.202;2023-01-10T09:05:13;5.80;99.90
3281;DHT22;1652;51.318;6.202;2023-01-10T09:07:57;5.90;99.90
3281;DHT22;1652;51.318;6.202;2023-01-10T09:10:24;6.00;99.90
3281;DHT22;1652;51.318;6.202;2023-01-10T09:12:52;6.10;99.90
3281;DHT22;1652;51.318;6.202;2023-01-10T09:15:27;6.30;99.90
3281;DHT22;1652;51.318;6.202;2023-01-10T09:17:55;6.40;99.90
3281;DHT22;1652;51.318;6.202;2023-01-10T09:20:27;6.50;99.90
3281;DHT22;1652;51.318;6.202;2023-01-10T09:22:54;6.60;99.90
3281;DHT22;1652;51.318;6.202;2023-01-10T09:25:23;6.60;99.90
3281;DHT22;1652;51.318;6.202;2023-01-10T09:28:00;6.60;99.90
3281;DHT22;1652;51.318;6.202;2023-01-10T09:30:28;6.60;99.90
3281;DHT22;1652;51.318;6.202;2023-01-10T09:32:55;6.60;99.90
3281;DHT22;1652;51.318;6.202;2023-01-10T09:35:23;6.60;99.90
3281;DHT22;1652;51.318;6.202;2023-01-10T09:37:53;6.60;99.90
3281;DHT22;1652;51.318;6.202;2023-01-10T09:40:57;6.60;99.90
3281;DHT22;1652;51.318;6.202;2023-01-10T09:46:19;6.70;99.90
3281;DHT22;1652;51.318;6.202;2023-01-10T09:48:56;6.80;99.90
3281;DHT22;1652;51.318;6.202;2023-01-10T09:51:31;6.80;99.90
3281;DHT22;1652;51.318;6.202;2023-01-10T09:54:04;6.80;99.90
3281;DHT22;1652;51.318;6.202;2023-01-10T09:56:38;6.80;99.90
3281;DHT22;1652;51.318;6.202;2023-01-10T09:59:16;6.90;99.90
3281;DHT22;1652;51.318;6.202;2023-01-10T10:01:45;7.00;99.90
3281;DHT22;1652;51.318;6.202;2023-01-10T10:04:35;7.00;99.90
3281;DHT22;1652;51.318;6.202;2023-01-10T10:07:03;7.00;99.90
3281;DHT22;1652;51.318;6.202;2023-01-10T10:09:33;7.00;99.90
3281;DHT22;1652;51.318;6.202;2023-01-10T10:18:13;7.10;99.90
3281;DHT22;1652;51.318;6.202;2023-01-10T10:20:56;7.10;99.90
3281;DHT22;1652;51.318;6.202;2023-01-10T10:26:33;7.10;99.90
3281;DHT22;1652;51.318;6.202;2023-01-10T10:29:33;7.20;99.90
3281;DHT22;1652;51.318;6.202;2023-01-10T10:34:49;7.30;99.90
3281;DHT22;1652;51.318;6.202;2023-01-10T10:37:47;7.40;99.90
3281;DHT22;1652;51.318;6.202;2023-01-10T10:40:18;7.50;99.90
3281;DHT22;1652;51.318;6.202;2023-01-10T10:42:49;7.60;99.90
3281;DHT22;1652;51.318;6.202;2023-01-10T10:45:40;7.60;99.90
3281;DHT22;1652;51.318;6.202;2023-01-10T10:48:24;7.60;99.90
3281;DHT22;1652;51.318;6.202;2023-01-10T10:51:04;7.70;99.90
3281;DHT22;1652;51.318;6.202;2023-01-10T10:53:33;7.70;99.90
3281;DHT22;1652;51.318;6.202;2023-01-10T10:56:02;7.80;99.90
3281;DHT22;1652;51.318;6.202;2023-01-10T10:58:30;7.80;99.90
3281;DHT22;1652;51.318;6.202;2023-01-10T11:01:00;7.70;99.90
3281;DHT22;1652;51.318;6.202;2023-01-10T11:03:41;7.70;99.90
3281;DHT22;1652;51.318;6.202;2023-01-10T11:06:10;7.70;99.90
3281;DHT22;1652;51.318;6.202;2023-01-10T11:08:41;7.70;99.90
3281;DHT22;1652;51.318;6.202;2023-01-10T11:11:31;7.60;99.90
3281;DHT22;1652;51.318;6.202;2023-01-10T11:14:02;7.60;99.90
3281;DHT22;1652;51.318;6.202;2023-01-10T11:16:31;7.70;99.90
3281;DHT22;1652;51.318;6.202;2023-01-10T11:19:25;7.70;99.90
3281;DHT22;1652;51.318;6.202;2023-01-10T11:22:04;7.70;99.90
3281;DHT22;1652;51.318;6.202;2023-01-10T11:25:20;7.70;99.90
3281;DHT22;1652;51.318;6.202;2023-01-10T11:27:24;7.70;99.90
3281;DHT22;1652;51.318;6.202;2023-01-10T11:29:59;7.70;99.90
3281;DHT22;1652;51.318;6.202;2023-01-10T11:32:35;7.80;99.90
3281;DHT22;1652;51.318;6.202;2023-01-10T11:35:15;7.80;99.90
3281;DHT22;1652;51.318;6.202;2023-01-10T11:37:43;7.80;99.90
3281;DHT22;1652;51.318;6.202;2023-01-10T11:40:28;7.90;99.90
3281;DHT22;1652;51.318;6.202;2023-01-10T11:42:57;7.90;99.90
3281;DHT22;1652;51.318;6.202;2023-01-10T11:45:32;7.90;99.90
3281;DHT22;1652;51.318;6.202;2023-01-10T11:48:08;7.90;99.90
3281;DHT22;1652;51.318;6.202;2023-01-10T11:50:38;8.00;99.90
3281;DHT22;1652;51.318;6.202;2023-01-10T11:53:06;7.90;99.90
3281;DHT22;1652;51.318;6.202;2023-01-10T11:55:48;8.00;99.90
3281;DHT22;1652;51.318;6.202;2023-01-10T11:58:15;8.00;99.90
3281;DHT22;1652;51.318;6.202;2023-01-10T12:00:45;8.00;99.90
3281;DHT22;1652;51.318;6.202;2023-01-10T12:03:29;8.10;99.90
3281;DHT22;1652;51.318;6.202;2023-01-10T12:08:35;8.00;99.90
3281;DHT22;1652;51.318;6.202;2023-01-10T12:11:21;8.00;99.90
3281;DHT22;1652;51.318;6.202;2023-01-10T12:13:52;8.00;99.90
3281;DHT22;1652;51.318;6.202;2023-01-10T12:16:30;8.00;99.90
3281;DHT22;1652;51.318;6.202;2023-01-10T12:19:00;8.10;99.90
3281;DHT22;1652;51.318;6.202;2023-01-10T12:24:13;8.20;99.90
3281;DHT22;1652;51.318;6.202;2023-01-10T12:26:41;8.20;99.90
3281;DHT22;1652;51.318;6.202;2023-01-10T12:29:14;8.20;99.90
3281;DHT22;1652;51.318;6.202;2023-01-10T12:31:41;8.20;99.90
3281;DHT22;1652;51.318;6.202;2023-01-10T12:34:18;8.20;99.90
3281;DHT22;1652;51.318;6.202;2023-01-10T12:37:04;8.20;99.90
3281;DHT22;1652;51.318;6.202;2023-01-10T12:40:29;8.20;99.90
3281;DHT22;1652;51.318;6.202;2023-01-10T12:42:57;8.20;99.90
3281;DHT22;1652;51.318;6.202;2023-01-10T12:45:55;8.20;99.90
3281;DHT22;1652;51.318;6.202;2023-01-10T12:48:36;8.30;99.90
3281;DHT22;1652;51.318;6.202;2023-01-10T12:51:13;8.30;99.90
3281;DHT22;1652;51.318;6.202;2023-01-10T12:53:45;8.40;99.90
3281;DHT22;1652;51.318;6.202;2023-01-10T12:56:15;8.30;99.90
3281;DHT22;1652;51.318;6.202;2023-01-10T12:58:50;8.40;99.90
3281;DHT22;1652;51.318;6.202;2023-01-10T13:01:30;8.40;99.90
3281;DHT22;1652;51.318;6.202;2023-01-10T13:04:03;8.40;99.90
3281;DHT22;1652;51.318;6.202;2023-01-10T13:06:33;8.40;99.90
3281;DHT22;1652;51.318;6.202;2023-01-10T13:09:08;8.40;99.90
3281;DHT22;1652;51.318;6.202;2023-01-10T13:12:10;8.40;99.90
3281;DHT22;1652;51.318;6.202;2023-01-10T13:22:44;8.40;99.90
3281;DHT22;1652;51.318;6.202;2023-01-10T13:27:54;8.40;99.90
3281;DHT22;1652;51.318;6.202;2023-01-10T13:35:42;8.50;99.90
3281;DHT22;1652;51.318;6.202;2023-01-10T13:38:31;8.50;99.90
3281;DHT22;1652;51.318;6.202;2023-01-10T13:43:38;8.50;99.90
3281;DHT22;1652;51.318;6.202;2023-01-10T13:51:20;8.50;99.90
3281;DHT22;1652;51.318;6.202;2023-01-10T13:56:43;8.40;99.90
3281;DHT22;1652;51.318;6.202;2023-01-10T14:02:23;8.40;99.90
3281;DHT22;1652;51.318;6.202;2023-01-10T14:05:12;8.40;99.90
3281;DHT22;1652;51.318;6.202;2023-01-10T14:08:00;8.40;99.90
3281;DHT22;1652;51.318;6.202;2023-01-10T14:10:30;8.40;99.90
3281;DHT22;1652;51.318;6.202;2023-01-10T14:13:05;8.40;99.90
3281;DHT22;1652;51.318;6.202;2023-01-10T14:15:40;8.40;99.90
3281;DHT22;1652;51.318;6.202;2023-01-10T14:18:19;8.40;99.90
3281;DHT22;1652;51.318;6.202;2023-01-10T14:20:59;8.40;99.90
3281;DHT22;1652;51.318;6.202;2023-01-10T14:23:49;8.40;99.90
3281;DHT22;1652;51.318;6.202;2023-01-10T14:26:37;8.40;99.90
3281;DHT22;1652;51.318;6.202;2023-01-10T14:29:09;8.40;99.90
3281;DHT22;1652;51.318;6.202;2023-01-10T14:31:44;8.40;99.90
3281;DHT22;1652;51.318;6.202;2023-01-10T14:34:19;8.40;99.90
3281;DHT22;1652;51.318;6.202;2023-01-10T14:37:07;8.30;99.90
3281;DHT22;1652;51.318;6.202;2023-01-10T14:39:35;8.30;99.90
3281;DHT22;1652;51.318;6.202;2023-01-10T14:42:05;8.30;99.90
3281;DHT22;1652;51.318;6.202;2023-01-10T14:44:58;8.30;99.90
3281;DHT22;1652;51.318;6.202;2023-01-10T14:47:33;8.40;99.90
3281;DHT22;1652;51.318;6.202;2023-01-10T14:50:00;8.30;99.90
3281;DHT22;1652;51.318;6.202;2023-01-10T14:52:31;8.30;99.90
3281;DHT22;1652;51.318;6.202;2023-01-10T14:55:14;8.10;99.90
3281;DHT22;1652;51.318;6.202;2023-01-10T14:57:54;8.00;99.90
3281;DHT22;1652;51.318;6.202;2023-01-10T15:00:31;7.70;99.90
3281;DHT22;1652;51.318;6.202;2023-01-10T15:02:59;7.60;99.90
3281;DHT22;1652;51.318;6.202;2023-01-10T15:08:21;7.40;99.90
3281;DHT22;1652;51.318;6.202;2023-01-10T15:10:52;7.30;99.90
3281;DHT22;1652;51.318;6.202;2023-01-10T15:13:23;7.30;99.90
3281;DHT22;1652;51.318;6.202;2023-01-10T15:15:52;7.20;99.90
3281;DHT22;1652;51.318;6.202;2023-01-10T15:18:40;7.10;99.90
3281;DHT22;1652;51.318;6.202;2023-01-10T15:21:11;7.00;99.90
3281;DHT22;1652;51.318;6.202;2023-01-10T15:23:41;7.00;99.90
3281;DHT22;1652;51.318;6.202;2023-01-10T15:26:12;6.90;99.90
3281;DHT22;1652;51.318;6.202;2023-01-10T15:28:43;6.90;99.90
3281;DHT22;1652;51.318;6.202;2023-01-10T15:31:15;6.80;99.90
3281;DHT22;1652;51.318;6.202;2023-01-10T15:33:44;6.80;99.90
3281;DHT22;1652;51.318;6.202;2023-01-10T15:36:14;6.80;99.90
3281;DHT22;1652;51.318;6.202;2023-01-10T15:38:45;6.70;99.90
3281;DHT22;1652;51.318;6.202;2023-01-10T15:41:20;6.70;99.90
3281;DHT22;1652;51.318;6.202;2023-01-10T15:43:48;6.60;99.90
3281;DHT22;1652;51.318;6.202;2023-01-10T15:46:24;6.60;99.90
3281;DHT22;1652;51.318;6.202;2023-01-10T15:49:02;6.60;99.90
3281;DHT22;1652;51.318;6.202;2023-01-10T15:51:38;6.60;99.90
3281;DHT22;1652;51.318;6.202;2023-01-10T15:56:51;6.50;99.90
3281;DHT22;1652;51.318;6.202;2023-01-10T15:59:22;6.50;99.90
3281;DHT22;1652;51.318;6.202;2023-01-10T16:01:53;6.50;99.90
3281;DHT22;1652;51.318;6.202;2023-01-10T16:04:21;6.60;99.90
3281;DHT22;1652;51.318;6.202;2023-01-10T16:06:52;6.50;99.90
3281;DHT22;1652;51.318;6.202;2023-01-10T16:09:21;6.50;99.90
3281;DHT22;1652;51.318;6.202;2023-01-10T16:11:51;6.50;99.90
3281;DHT22;1652;51.318;6.202;2023-01-10T16:14:37;6.50;99.90
3281;DHT22;1652;51.318;6.202;2023-01-10T16:17:05;6.50;99.90
3281;DHT22;1652;51.318;6.202;2023-01-10T16:19:32;6.50;99.90
3281;DHT22;1652;51.318;6.202;2023-01-10T16:22:00;6.50;99.90
3281;DHT22;1652;51.318;6.202;2023-01-10T16:24:30;6.50;99.90
3281;DHT22;1652;51.318;6.202;2023-01-10T16:26:58;6.50;99.90
3281;DHT22;1652;51.318;6.202;2023-01-10T16:29:28;6.50;99.90
3281;DHT22;1652;51.318;6.202;2023-01-10T16:31:55;6.50;99.90
3281;DHT22;1652;51.318;6.202;2023-01-10T16:34:22;6.50;99.90
3281;DHT22;1652;51.318;6.202;2023-01-10T16:36:51;6.40;99.90
3281;DHT22;1652;51.318;6.202;2023-01-10T16:39:20;6.40;99.90
3281;DHT22;1652;51.318;6.202;2023-01-10T16:41:47;6.40;99.90
3281;DHT22;1652;51.318;6.202;2023-01-10T16:44:33;6.40;99.90
3281;DHT22;1652;51.318;6.202;2023-01-10T16:47:01;6.40;99.90
3281;DHT22;1652;51.318;6.202;2023-01-10T16:49:31;6.40;99.90
3281;DHT22;1652;51.318;6.202;2023-01-10T16:51:58;6.40;99.90
3281;DHT22;1652;51.318;6.202;2023-01-10T16:54:25;6.40;99.90
3281;DHT22;1652;51.318;6.202;2023-01-10T16:56:53;6.40;99.90
3281;DHT22;1652;51.318;6.202;2023-01-10T16:59:19;6.40;99.90
3281;DHT22;1652;51.318;6.202;2023-01-10T17:01:50;6.40;99.90
3281;DHT22;1652;51.318;6.202;2023-01-10T17:04:23;6.40;99.90
3281;DHT22;1652;51.318;6.202;2023-01-10T17:06:50;6.40;99.90
3281;DHT22;1652;51.318;6.202;2023-01-10T17:09:35;6.30;99.90
3281;DHT22;1652;51.318;6.202;2023-01-10T17:12:09;6.30;99.90
3281;DHT22;1652;51.318;6.202;2023-01-10T17:14:38;6.30;99.90
3281;DHT22;1652;51.318;6.202;2023-01-10T17:17:05;6.30;99.90
3281;DHT22;1652;51.318;6.202;2023-01-10T17:19:32;6.30;99.90
3281;DHT22;1652;51.318;6.202;2023-01-10T17:21:59;6.30;99.90
3281;DHT22;1652;51.318;6.202;2023-01-10T17:24:26;6.20;99.90
3281;DHT22;1652;51.318;6.202;2023-01-10T17:26:55;6.20;99.90
3281;DHT22;1652;51.318;6.202;2023-01-10T17:29:21;6.30;99.90
3281;DHT22;1652;51.318;6.202;2023-01-10T17:31:49;6.30;99.90
3281;DHT22;1652;51.318;6.202;2023-01-10T17:34:16;6.30;99.90
3281;DHT22;1652;51.318;6.202;2023-01-10T17:36:42;6.30;99.90
3281;DHT22;1652;51.318;6.202;2023-01-10T17:39:09;6.30;99.90
3281;DHT22;1652;51.318;6.202;2023-01-10T17:41:36;6.30;99.90
3281;DHT22;1652;51.318;6.202;2023-01-10T17:44:03;6.30;99.90
3281;DHT22;1652;51.318;6.202;2023-01-10T17:46:30;6.30;99.90
3281;DHT22;1652;51.318;6.202;2023-01-10T17:48:57;6.40;99.90
3281;DHT22;1652;51.318;6.202;2023-01-10T17:51:24;6.30;99.90
3281;DHT22;1652;51.318;6.202;2023-01-10T17:53:54;6.30;99.90
3281;DHT22;1652;51.318;6.202;2023-01-10T17:56:21;6.30;99.90
3281;DHT22;1652;51.318;6.202;2023-01-10T17:58:48;6.30;99.90
3281;DHT22;1652;51.318;6.202;2023-01-10T18:01:19;6.40;99.90
3281;DHT22;1652;51.318;6.202;2023-01-10T18:03:50;6.40;99.90
3281;DHT22;1652;51.318;6.202;2023-01-10T18:06:18;6.40;99.90